Time;durP1;ratioP1;P1;durP2;ratioP2;P2;SDS_P1;SDS_P2;PMS_P1;PMS_P2;Temp;Humidity;BMP_temperature;BMP_pressure;BME280_temperature;BME280_humidity;BME280_pressure;Samples;Min_cycle;Max_cycle;Signal;HPM_P1;HPM_P2
2023/04/25 00:00:27;;;;;;;7.35;3.00;;;;;;;8.96;41.25;100615.97;5059015;28;20142;-74
2023/04/25 00:02:56;;;;;;;6.18;2.83;;;;;;;8.93;40.79;100608.03;5056893;28;20029;-74
2023/04/25 00:05:24;;;;;;;7.10;2.85;;;;;;;8.92;40.66;100608.16;5039580;28;20040;-75
2023/04/25 00:07:52;;;;;;;7.95;2.83;;;;;;;8.90;41.22;100605.56;5045321;28;20041;-76
2023/04/25 00:10:22;;;;;;;6.78;3.20;;;;;;;8.91;40.92;100615.50;5038559;28;20041;-78
2023/04/25 00:12:50;;;;;;;7.82;3.47;;;;;;;8.88;41.08;100615.75;5041392;28;20045;-77
2023/04/25 00:15:18;;;;;;;7.63;3.17;;;;;;;8.87;41.11;100622.19;5040974;28;20688;-77
2023/04/25 00:17:46;;;;;;;6.38;3.33;;;;;;;8.88;40.87;100617.63;5044863;28;20053;-77
2023/04/25 00:20:15;;;;;;;7.13;2.90;;;;;;;8.87;40.94;100615.88;5038130;28;20132;-76
2023/04/25 00:22:42;;;;;;;7.25;3.25;;;;;;;8.87;41.43;100622.19;5040114;28;20052;-76
2023/04/25 00:25:10;;;;;;;8.35;3.25;;;;;;;8.87;41.27;100616.75;5050037;28;20044;-78
2023/04/25 00:27:41;;;;;;;8.73;3.60;;;;;;;8.88;40.81;100618.47;5040894;28;20053;-75
2023/04/25 00:30:10;;;;;;;7.47;2.75;;;;;;;8.87;41.10;100621.34;5045983;28;20053;-76
2023/04/25 00:32:38;;;;;;;7.05;2.78;;;;;;;8.86;41.13;100612.28;5045275;28;20052;-76
2023/04/25 00:35:06;;;;;;;8.40;3.35;;;;;;;8.86;41.09;100623.19;5042016;28;20052;-76
2023/04/25 00:37:34;;;;;;;7.55;3.25;;;;;;;8.86;41.17;100615.00;5042223;28;20068;-77
2023/04/25 00:40:03;;;;;;;6.35;2.97;;;;;;;8.87;41.30;100615.88;5039079;28;20055;-76
2023/04/25 00:42:32;;;;;;;8.43;2.88;;;;;;;8.87;41.08;100621.34;5043136;28;20077;-77
2023/04/25 00:45:02;;;;;;;8.68;3.33;;;;;;;8.87;41.48;100624.94;5048277;28;20124;-77
2023/04/25 00:47:30;;;;;;;5.70;3.20;;;;;;;8.86;41.65;100614.13;5043257;28;20051;-78
2023/04/25 00:49:58;;;;;;;6.50;2.92;;;;;;;8.87;41.41;100622.19;5044653;28;20444;-77
2023/04/25 00:52:26;;;;;;;7.13;2.70;;;;;;;8.88;41.68;100621.22;5063496;28;20056;-76
2023/04/25 00:54:54;;;;;;;6.28;2.72;;;;;;;8.87;41.70;100618.59;5054873;28;20044;-77
2023/04/25 00:57:22;;;;;;;5.30;2.55;;;;;;;8.87;41.65;100615.88;5043707;28;20056;-77
2023/04/25 00:59:52;;;;;;;6.25;2.78;;;;;;;8.89;41.36;100617.50;5052507;28;20049;-76
2023/04/25 01:02:21;;;;;;;7.88;2.95;;;;;;;8.88;41.30;100618.47;5048405;28;20052;-77
2023/04/25 01:04:49;;;;;;;6.18;2.67;;;;;;;8.87;41.51;100611.28;5048474;28;20049;-77
2023/04/25 01:07:17;;;;;;;6.15;2.80;;;;;;;8.87;41.14;100613.16;5037777;28;20057;-77
2023/04/25 01:09:46;;;;;;;7.25;2.90;;;;;;;8.86;41.39;100616.88;5038301;28;20076;-77
2023/04/25 01:12:15;;;;;;;6.20;2.63;;;;;;;8.87;41.24;100615.88;5044145;28;20040;-76
2023/04/25 01:14:43;;;;;;;5.75;3.00;;;;;;;8.87;41.07;100621.34;5058668;28;20055;-76
2023/04/25 01:17:11;;;;;;;6.50;2.45;;;;;;;8.86;41.28;100623.19;5045453;28;20051;-77
2023/04/25 01:19:40;;;;;;;8.05;2.63;;;;;;;8.87;41.75;100622.19;5040720;28;20044;-77
2023/04/25 01:22:11;;;;;;;4.82;2.38;;;;;;;8.87;41.45;100621.34;5058448;28;20046;-77
2023/04/25 01:24:39;;;;;;;4.30;2.60;;;;;;;8.85;41.79;100626.91;5049261;28;20136;-75
2023/04/25 01:27:08;;;;;;;4.97;2.40;;;;;;;8.85;41.19;100626.91;5037589;28;20136;-76
2023/04/25 01:29:36;;;;;;;6.20;2.38;;;;;;;8.84;41.54;100622.44;5043777;28;20067;-77
2023/04/25 01:32:05;;;;;;;4.90;2.50;;;;;;;8.84;41.52;100616.13;5044554;28;20044;-77
2023/04/25 01:34:34;;;;;;;4.97;2.28;;;;;;;8.83;41.38;100615.28;5051000;28;20067;-77
2023/04/25 01:37:02;;;;;;;5.03;2.60;;;;;;;8.83;41.38;100620.75;5046455;28;20045;-77
2023/04/25 01:39:31;;;;;;;4.47;2.10;;;;;;;8.84;41.15;100621.56;5034503;28;20041;-77
2023/04/25 01:42:01;;;;;;;5.47;2.15;;;;;;;8.83;41.23;100623.47;5037123;28;21561;-77
2023/04/25 01:44:31;;;;;;;5.63;2.50;;;;;;;8.82;41.59;100629.06;5041616;28;20135;-76
2023/04/25 01:46:58;;;;;;;7.80;2.50;;;;;;;8.81;41.62;100620.00;5056233;28;20533;-77
2023/04/25 01:49:26;;;;;;;5.32;2.40;;;;;;;8.81;41.28;100627.31;5043199;28;20048;-78
2023/04/25 01:51:54;;;;;;;8.30;2.58;;;;;;;8.81;41.70;100638.22;5047621;28;20048;-77
2023/04/25 01:54:22;;;;;;;3.58;2.15;;;;;;;8.80;41.87;100636.50;5047545;28;20072;-78
2023/04/25 01:56:53;;;;;;;4.60;2.22;;;;;;;8.80;41.89;100637.38;5042447;28;20056;-77
2023/04/25 01:59:22;;;;;;;5.20;2.60;;;;;;;8.78;41.64;100643.94;5042095;28;20041;-76
2023/04/25 02:02:20;;;;;;;4.75;2.45;;;;;;;8.76;41.40;100643.19;5044211;28;20500;-77
2023/04/25 02:04:48;;;;;;;5.18;1.95;;;;;;;8.77;41.65;100650.38;5048204;28;20045;-77
2023/04/25 02:07:16;;;;;;;3.72;2.30;;;;;;;8.77;42.02;100642.19;5039193;28;20082;-77
2023/04/25 02:09:49;;;;;;;6.68;2.65;;;;;;;8.76;41.52;100643.19;5037111;28;20045;-75
2023/04/25 02:12:20;;;;;;;5.68;2.30;;;;;;;8.78;41.44;100646.66;5045511;28;20057;-76
2023/04/25 02:15:07;;;;;;;4.40;2.10;;;;;;;8.75;41.60;100649.66;5041889;28;20074;-76
2023/04/25 02:17:48;;;;;;;5.15;2.38;;;;;;;8.73;41.42;100649.78;5057369;28;20548;-76
2023/04/25 02:20:17;;;;;;;6.97;2.60;;;;;;;8.73;41.51;100651.66;5056235;28;20037;-77
2023/04/25 02:22:45;;;;;;;6.13;2.42;;;;;;;8.73;41.74;100654.38;5041340;28;20733;-77
2023/04/25 02:25:13;;;;;;;4.30;2.10;;;;;;;8.73;41.46;100648.91;5043233;28;20611;-77
2023/04/25 02:27:43;;;;;;;4.30;1.98;;;;;;;8.72;41.67;100648.06;5039519;28;20045;-76
2023/04/25 02:30:11;;;;;;;3.72;2.08;;;;;;;8.71;41.58;100640.84;5049878;28;21702;-77
2023/04/25 02:32:39;;;;;;;3.65;2.13;;;;;;;8.70;41.80;100641.84;5043845;28;20614;-76
2023/04/25 02:35:08;;;;;;;3.60;1.92;;;;;;;8.71;42.12;100646.31;5045190;28;20786;-75
2023/04/25 02:37:38;;;;;;;5.32;1.73;;;;;;;8.71;41.60;100646.31;5044345;28;20052;-77
2023/04/25 02:40:08;;;;;;;3.65;1.70;;;;;;;8.71;41.77;100658.09;5036209;28;20076;-77
2023/04/25 02:42:36;;;;;;;4.70;2.00;;;;;;;8.70;41.58;100641.84;5037430;28;20055;-77
2023/04/25 02:45:06;;;;;;;4.20;1.85;;;;;;;8.71;42.08;100649.03;5042445;28;20053;-77
2023/04/25 02:47:35;;;;;;;4.40;1.90;;;;;;;8.69;41.61;100640.97;5046524;28;20051;-77
2023/04/25 02:50:03;;;;;;;4.35;1.90;;;;;;;8.69;42.13;100640.09;5093159;22;20056;-79
2023/04/25 02:52:31;;;;;;;5.35;2.08;;;;;;;8.69;42.10;100637.38;5085853;28;20044;-79
2023/04/25 02:55:09;;;;;;;3.28;1.70;;;;;;;8.68;41.66;100643.81;5075545;28;20048;-80
2023/04/25 02:57:37;;;;;;;3.95;1.92;;;;;;;8.67;42.08;100640.22;5053194;28;20120;-81
2023/04/25 03:00:08;;;;;;;3.67;1.75;;;;;;;8.70;42.12;100644.56;5067131;28;20412;-79
2023/04/25 03:02:36;;;;;;;4.13;2.13;;;;;;;8.67;41.96;100640.22;5062583;23;20056;-82
2023/04/25 03:05:04;;;;;;;5.90;2.10;;;;;;;8.67;42.04;100645.69;5034078;28;20386;-82
2023/04/25 03:07:33;;;;;;;6.28;2.20;;;;;;;8.67;41.61;100634.78;5047430;28;20069;-82
2023/04/25 03:10:01;;;;;;;3.70;2.05;;;;;;;8.65;41.78;100647.69;5032621;28;20054;-82
2023/04/25 03:12:31;;;;;;;5.65;2.20;;;;;;;8.66;41.88;100643.09;5064599;28;20061;-81
2023/04/25 03:14:58;;;;;;;4.25;2.00;;;;;;;8.66;42.45;100651.28;5039137;28;20623;-83
2023/04/25 03:17:28;;;;;;;5.57;2.38;;;;;;;8.66;41.92;100654.03;5032285;28;20052;-82
2023/04/25 03:19:56;;;;;;;4.22;2.00;;;;;;;8.66;42.29;100657.63;5031640;28;20068;-82
2023/04/25 03:22:24;;;;;;;3.92;2.13;;;;;;;8.67;42.19;100655.75;5042734;28;20040;-82
2023/04/25 03:24:52;;;;;;;6.53;2.10;;;;;;;8.65;42.23;100649.56;5032017;28;20041;-82
2023/04/25 03:27:20;;;;;;;7.15;2.35;;;;;;;8.65;42.40;100652.28;5032705;28;20053;-82
2023/04/25 03:29:49;;;;;;;13.68;3.58;;;;;;;8.66;42.59;100651.28;5035652;28;20045;-81
2023/04/25 03:32:17;;;;;;;4.82;2.22;;;;;;;8.64;42.52;100654.16;5028271;28;20124;-82
2023/04/25 03:34:48;;;;;;;6.93;2.40;;;;;;;8.66;42.16;100660.34;5033146;28;20424;-82
2023/04/25 03:37:15;;;;;;;5.63;2.58;;;;;;;8.64;42.12;100650.53;5015116;28;20089;-82
2023/04/25 03:39:43;;;;;;;5.65;2.33;;;;;;;8.65;41.87;100652.28;5012306;28;20134;-81
2023/04/25 03:42:12;;;;;;;5.40;2.53;;;;;;;8.64;42.34;100654.16;5011270;28;20126;-81
2023/04/25 03:44:39;;;;;;;6.72;2.85;;;;;;;8.63;42.05;100662.44;5011757;28;20053;-81
2023/04/25 03:47:08;;;;;;;4.95;2.40;;;;;;;8.61;42.43;100665.28;5005614;28;20061;-81
2023/04/25 03:49:36;;;;;;;5.22;2.65;;;;;;;8.62;42.48;100666.16;5017888;28;20034;-81
2023/04/25 03:52:08;;;;;;;6.93;2.60;;;;;;;8.62;42.59;100661.56;5014682;28;20045;-81
2023/04/25 03:54:39;;;;;;;6.97;3.25;;;;;;;8.59;42.71;100666.41;5024304;28;20080;-81
2023/04/25 03:57:19;;;;;;;5.57;2.28;;;;;;;8.59;42.13;100670.00;5021167;28;20127;-81
2023/04/25 03:59:47;;;;;;;6.38;2.70;;;;;;;8.59;42.68;100663.69;5016280;28;21672;-81
2023/04/25 04:02:16;;;;;;;5.32;2.50;;;;;;;8.59;42.77;100660.94;5011223;28;20049;-81
2023/04/25 04:04:45;;;;;;;5.97;2.65;;;;;;;8.59;42.86;100667.28;5007776;28;20069;-81
2023/04/25 04:07:15;;;;;;;7.15;2.95;;;;;;;8.59;42.56;100667.28;5014203;28;20045;-81
2023/04/25 04:09:49;;;;;;;5.93;2.70;;;;;;;8.58;42.55;100667.44;5014483;28;20046;-81
2023/04/25 04:12:26;;;;;;;7.60;2.55;;;;;;;8.57;42.61;100673.88;5030246;28;21430;-81
2023/04/25 04:14:54;;;;;;;5.93;2.58;;;;;;;8.57;42.79;100673.88;5030618;28;20055;-80
2023/04/25 04:17:22;;;;;;;6.93;2.83;;;;;;;8.57;42.89;100682.06;5031515;28;20050;-81
2023/04/25 04:19:51;;;;;;;7.05;2.70;;;;;;;8.56;42.94;100683.03;5024993;28;20117;-81
2023/04/25 04:22:23;;;;;;;7.18;2.88;;;;;;;8.56;42.73;100680.31;5017215;28;20045;-81
2023/04/25 04:24:54;;;;;;;7.32;2.20;;;;;;;8.54;42.52;100679.56;5028691;28;20719;-81
2023/04/25 04:27:41;;;;;;;6.93;2.60;;;;;;;8.52;42.54;100679.69;5025972;28;20050;-80
2023/04/25 04:30:25;;;;;;;6.97;2.67;;;;;;;8.53;42.53;100686.88;5010564;28;20061;-81
2023/04/25 04:33:03;;;;;;;7.28;2.50;;;;;;;8.54;43.05;100685.91;5027658;28;20073;-81
2023/04/25 04:35:31;;;;;;;8.25;2.65;;;;;;;8.52;42.83;100693.31;5012895;28;20137;-81
2023/04/25 04:38:01;;;;;;;7.28;2.45;;;;;;;8.53;42.74;100696.94;5034162;28;20064;-80
2023/04/25 04:40:33;;;;;;;9.40;3.85;;;;;;;8.51;42.97;100693.44;5028870;28;20056;-81
2023/04/25 04:43:22;;;;;;;5.53;2.30;;;;;;;8.50;43.11;100694.47;5026624;28;20072;-81
2023/04/25 04:45:55;;;;;;;6.18;2.90;;;;;;;8.49;43.14;100693.59;5018972;28;20129;-81
2023/04/25 04:48:44;;;;;;;10.35;2.85;;;;;;;8.48;42.87;100705.50;5011044;28;20045;-81
2023/04/25 04:51:44;;;;;;;10.38;2.80;;;;;;;8.46;43.20;100712.06;4961023;28;20054;-81
2023/04/25 04:54:35;;;;;;;7.10;2.60;;;;;;;8.48;42.99;100712.81;5008725;28;20049;-81
2023/04/25 04:57:16;;;;;;;6.68;2.50;;;;;;;8.46;43.00;100718.38;5020722;28;20115;-81
2023/04/25 05:00:10;;;;;;;6.07;2.80;;;;;;;8.47;43.04;100724.72;4994224;28;20427;-80
2023/04/25 05:02:41;;;;;;;5.32;2.33;;;;;;;8.47;43.31;100727.44;5011722;28;20141;-82
2023/04/25 05:05:28;;;;;;;8.23;2.97;;;;;;;8.45;42.89;100733.00;5010855;28;20136;-82
2023/04/25 05:08:19;;;;;;;7.13;2.53;;;;;;;8.45;43.11;100733.00;5009731;28;20054;-83
2023/04/25 05:11:13;;;;;;;8.65;2.58;;;;;;;8.46;43.11;100737.47;5017473;28;20111;-83
2023/04/25 05:13:56;;;;;;;6.20;2.60;;;;;;;8.47;42.95;100741.94;5012188;28;20042;-83
2023/04/25 05:16:43;;;;;;;6.50;3.05;;;;;;;8.47;42.91;100739.22;5014177;28;20038;-82
2023/04/25 05:19:25;;;;;;;5.72;2.42;;;;;;;8.47;43.24;100743.78;5018237;28;20049;-83
2023/04/25 05:22:10;;;;;;;8.20;2.70;;;;;;;8.48;43.24;100753.72;5031765;28;20053;-82
2023/04/25 05:24:59;;;;;;;6.65;2.75;;;;;;;8.50;43.31;100755.34;5012353;28;20145;-82
2023/04/25 05:27:53;;;;;;;6.43;2.67;;;;;;;8.51;43.13;100759.78;5013654;28;20052;-82
2023/04/25 05:30:44;;;;;;;8.65;2.80;;;;;;;8.53;43.16;100760.53;5024917;28;20045;-83
2023/04/25 05:33:29;;;;;;;6.97;2.80;;;;;;;8.54;42.99;100753.22;5015189;28;20042;-83
2023/04/25 05:35:57;;;;;;;6.32;2.70;;;;;;;8.57;43.04;100762.03;5007486;28;20041;-84
2023/04/25 05:38:26;;;;;;;6.85;2.53;;;;;;;8.58;42.94;100768.34;5028553;28;20046;-84
2023/04/25 05:41:29;;;;;;;5.22;2.35;;;;;;;8.55;43.39;100769.47;5012779;28;20576;-84
2023/04/25 05:44:15;;;;;;;5.07;2.20;;;;;;;8.59;43.18;100765.47;5023490;28;20050;-84
2023/04/25 05:46:59;;;;;;;5.05;2.15;;;;;;;8.58;43.17;100766.50;5037992;28;20058;-83
2023/04/25 05:49:47;;;;;;;6.60;2.35;;;;;;;8.59;42.50;100779.13;5024019;28;20086;-83
2023/04/25 05:52:24;;;;;;;5.15;1.80;;;;;;;8.60;42.67;100774.53;5011064;28;20049;-82
2023/04/25 05:55:03;;;;;;;5.32;2.45;;;;;;;8.60;42.76;100775.41;5015162;28;20082;-84
2023/04/25 05:58:09;;;;;;;8.98;3.10;;;;;;;8.62;42.80;100780.75;5010634;28;20065;-83
2023/04/25 06:01:05;;;;;;;5.78;2.40;;;;;;;8.62;43.35;100780.75;4936690;28;21418;-83
2023/04/25 06:03:38;;;;;;;7.25;2.45;;;;;;;8.65;43.19;100784.09;4984931;28;20050;-83
2023/04/25 06:06:30;;;;;;;5.65;2.20;;;;;;;8.67;43.14;100786.72;4973849;28;20056;-82
2023/04/25 06:09:08;;;;;;;6.32;2.30;;;;;;;8.70;42.91;100790.03;5044790;28;20095;-82
2023/04/25 06:11:53;;;;;;;6.40;2.60;;;;;;;8.73;43.17;100788.94;5020098;28;20058;-81
2023/04/25 06:14:32;;;;;;;6.70;2.28;;;;;;;8.75;43.28;100792.41;5018403;28;20049;-82
2023/04/25 06:17:07;;;;;;;4.72;2.63;;;;;;;8.81;42.48;100799.22;5008775;28;20532;-83
2023/04/25 06:19:40;;;;;;;5.47;2.65;;;;;;;8.80;42.92;100798.38;5019968;28;20049;-83
2023/04/25 06:22:08;;;;;;;8.52;2.50;;;;;;;8.85;43.25;100797.97;5031778;28;20061;-82
2023/04/25 06:24:39;;;;;;;5.88;2.72;;;;;;;8.87;43.08;100794.13;5041302;28;20106;-80
2023/04/25 06:27:07;;;;;;;6.05;2.92;;;;;;;8.92;42.60;100799.19;5025726;28;20130;-81
2023/04/25 06:29:35;;;;;;;6.53;2.50;;;;;;;8.98;42.55;100798.72;5033787;28;20056;-81
2023/04/25 06:32:05;;;;;;;7.78;2.75;;;;;;;9.02;42.87;100803.78;5034069;28;20132;-81
2023/04/25 06:34:39;;;;;;;5.57;2.55;;;;;;;9.09;42.05;100807.75;5030510;28;20164;-81
2023/04/25 06:38:04;;;;;;;5.45;2.22;;;;;;;9.11;41.57;100813.09;4994015;28;20100;-81
2023/04/25 06:40:41;;;;;;;6.03;2.55;;;;;;;9.17;42.72;100817.16;5025318;28;20111;-81
2023/04/25 06:43:11;;;;;;;5.82;2.70;;;;;;;9.21;42.60;100818.66;5023537;28;20046;-81
2023/04/25 06:45:53;;;;;;;6.85;2.80;;;;;;;9.29;41.99;100822.50;5018569;28;20116;-82
2023/04/25 06:49:05;;;;;;;7.00;2.55;;;;;;;9.35;40.82;100816.53;5008533;28;20073;-81
2023/04/25 06:52:01;;;;;;;6.10;2.72;;;;;;;9.37;41.97;100827.31;5025943;28;20500;-81
2023/04/25 06:58:12;;;;;;;5.20;2.08;;;;;;;9.44;41.45;100840.38;5046991;28;20046;-83
2023/04/25 07:01:04;;;;;;;5.20;1.95;;;;;;;9.53;41.41;100827.81;5034662;28;20587;-81
2023/04/25 07:03:39;;;;;;;7.07;2.60;;;;;;;9.55;41.79;100835.88;5017053;28;20374;-82
2023/04/25 07:06:19;;;;;;;5.82;2.65;;;;;;;9.60;41.64;100841.81;5030397;28;20057;-81
2023/04/25 07:08:47;;;;;;;4.95;2.75;;;;;;;9.64;41.74;100840.59;5015014;28;20053;-81
2023/04/25 07:11:16;;;;;;;7.80;2.80;;;;;;;9.68;41.31;100845.66;5021132;28;20386;-82
2023/04/25 07:13:44;;;;;;;7.60;2.50;;;;;;;9.72;41.76;100843.53;5034852;28;20041;-82
2023/04/25 07:16:12;;;;;;;5.47;2.38;;;;;;;9.75;41.08;100841.41;5051043;28;20099;-82
2023/04/25 07:18:41;;;;;;;5.20;2.10;;;;;;;9.80;41.12;100835.56;5034630;28;20048;-82
2023/04/25 07:21:11;;;;;;;5.30;2.03;;;;;;;9.85;40.92;100847.81;5034762;28;20580;-82
2023/04/25 07:23:43;;;;;;;6.57;2.15;;;;;;;9.93;41.18;100849.03;5017201;28;20050;-83
2023/04/25 07:26:15;;;;;;;4.97;2.30;;;;;;;9.96;41.09;100848.78;5015104;28;20050;-81
2023/04/25 07:29:03;;;;;;;5.00;2.20;;;;;;;10.00;41.35;100852.97;5018819;28;20068;-82
2023/04/25 07:31:31;;;;;;;4.38;2.05;;;;;;;10.06;40.87;100855.22;5019563;28;20041;-82
2023/04/25 07:33:58;;;;;;;6.43;2.25;;;;;;;10.09;40.56;100855.81;5018207;28;20115;-83
2023/04/25 07:36:30;;;;;;;4.97;2.00;;;;;;;10.11;40.53;100851.06;5009926;28;20033;-82
2023/04/25 07:39:00;;;;;;;5.05;2.15;;;;;;;10.16;39.83;100854.28;5012742;28;20084;-82
2023/04/25 07:41:28;;;;;;;5.90;1.98;;;;;;;10.16;40.17;100861.59;5016117;28;20504;-82
2023/04/25 07:43:58;;;;;;;5.30;2.00;;;;;;;10.16;39.85;100856.13;5042505;28;20107;-82
2023/04/25 07:46:26;;;;;;;4.10;1.70;;;;;;;10.16;39.60;100862.47;5013781;28;20050;-82
2023/04/25 07:48:54;;;;;;;5.05;2.00;;;;;;;10.16;39.53;100864.34;5046094;28;20049;-82
2023/04/25 07:51:22;;;;;;;5.15;1.90;;;;;;;10.15;39.06;100870.84;5010592;28;20042;-82
2023/04/25 07:53:52;;;;;;;5.80;2.20;;;;;;;10.13;39.40;100870.97;5044407;28;20049;-82
2023/04/25 07:56:22;;;;;;;5.25;2.15;;;;;;;10.12;39.38;100877.44;5010911;28;20129;-82
2023/04/25 07:58:52;;;;;;;5.03;2.20;;;;;;;10.09;39.49;100879.53;5034210;28;20050;-82
2023/04/25 08:01:21;;;;;;;7.82;2.47;;;;;;;10.06;39.41;100894.38;5011475;28;20046;-82
2023/04/25 08:03:54;;;;;;;7.38;2.70;;;;;;;10.02;38.91;100884.66;5005865;28;20128;-82
2023/04/25 08:06:52;;;;;;;5.93;2.53;;;;;;;9.97;39.05;100892.41;5002509;28;20502;-82
2023/04/25 08:09:24;;;;;;;4.95;2.10;;;;;;;9.93;38.80;100888.19;5009033;28;20049;-82
2023/04/25 08:11:55;;;;;;;6.28;2.10;;;;;;;9.95;39.01;100897.13;5006968;28;20061;-82
2023/04/25 08:14:28;;;;;;;4.20;2.10;;;;;;;9.90;39.13;100896.66;5009476;28;20054;-82
2023/04/25 08:16:58;;;;;;;4.80;2.00;;;;;;;9.91;39.16;100897.50;5005966;28;20057;-82
2023/04/25 08:19:26;;;;;;;4.78;1.77;;;;;;;9.89;38.75;100902.25;4997150;28;20406;-82
2023/04/25 08:21:56;;;;;;;4.85;1.80;;;;;;;9.89;39.06;100897.66;5007839;28;20557;-82
2023/04/25 08:24:31;;;;;;;4.50;1.88;;;;;;;9.90;38.79;100899.41;5013013;28;20050;-83
2023/04/25 08:27:01;;;;;;;3.55;1.73;;;;;;;9.96;38.79;100906.19;5003639;28;20512;-82
2023/04/25 08:29:30;;;;;;;4.30;1.73;;;;;;;9.99;39.14;100912.25;5002892;28;20562;-82
2023/04/25 08:31:58;;;;;;;6.30;2.22;;;;;;;10.03;39.15;100912.88;5011052;28;20571;-82
2023/04/25 08:34:26;;;;;;;6.78;2.45;;;;;;;10.09;38.79;100923.28;5005449;28;20462;-82
2023/04/25 08:36:55;;;;;;;4.45;2.10;;;;;;;10.10;39.16;100925.91;5007901;28;20053;-83
2023/04/25 08:39:38;;;;;;;5.63;2.30;;;;;;;10.13;38.51;100928.41;5007662;28;20049;-82
2023/04/25 08:42:24;;;;;;;6.20;2.42;;;;;;;10.18;37.97;100936.19;5010543;28;20065;-83
2023/04/25 08:44:54;;;;;;;4.32;2.20;;;;;;;10.21;38.13;100933.22;5012494;28;20081;-82
2023/04/25 08:47:28;;;;;;;7.70;2.40;;;;;;;10.21;38.30;100941.41;5014965;28;20528;-82
2023/04/25 08:49:59;;;;;;;5.63;2.47;;;;;;;10.22;38.27;100949.50;5012681;28;20868;-82
2023/04/25 08:52:31;;;;;;;5.55;2.00;;;;;;;10.29;38.05;100943.50;5009015;28;20408;-82
2023/04/25 08:55:02;;;;;;;6.45;2.95;;;;;;;10.33;38.54;100934.88;5012615;28;20058;-81
2023/04/25 08:57:32;;;;;;;5.30;2.33;;;;;;;10.41;38.02;100939.69;5011193;28;20100;-82
2023/04/25 09:00:02;;;;;;;3.10;1.70;;;;;;;10.48;37.95;100949.16;5012814;28;20041;-83
2023/04/25 09:02:34;;;;;;;3.53;1.70;;;;;;;10.55;38.15;100950.38;5036195;28;20049;-82
2023/04/25 09:05:04;;;;;;;4.45;1.83;;;;;;;10.63;38.23;100955.19;5015776;28;20052;-82
2023/04/25 09:07:32;;;;;;;4.00;1.70;;;;;;;10.71;37.67;100964.47;5023740;23;20516;-80
2023/04/25 09:10:02;;;;;;;4.82;1.92;;;;;;;10.80;37.96;100962.81;5029364;28;20038;-79
2023/04/25 09:12:36;;;;;;;3.92;1.63;;;;;;;10.92;37.00;100969.94;5010511;28;20046;-80
2023/04/25 09:15:07;;;;;;;3.28;1.35;;;;;;;11.01;37.02;100968.25;5012766;28;20050;-80
2023/04/25 09:18:06;;;;;;;3.40;1.30;;;;;;;11.05;37.11;100976.09;5010056;28;20517;-81
2023/04/25 09:20:43;;;;;;;4.95;1.55;;;;;;;11.14;36.20;100971.69;5009392;28;20053;-80
2023/04/25 09:23:32;;;;;;;4.97;1.80;;;;;;;11.16;36.50;100984.22;5035320;28;20042;-80
2023/04/25 09:26:00;;;;;;;5.45;1.80;;;;;;;11.20;36.29;100980.22;5027816;28;20058;-80
2023/04/25 09:28:29;;;;;;;3.90;1.50;;;;;;;11.25;36.07;100990.75;5020899;28;20413;-79
2023/04/25 09:31:01;;;;;;;4.32;1.70;;;;;;;11.24;36.20;100984.41;5021426;28;20319;-81
2023/04/25 09:33:37;;;;;;;2.95;1.33;;;;;;;11.24;35.85;100987.16;5048818;28;20053;-80
2023/04/25 09:36:09;;;;;;;3.00;1.35;;;;;;;11.26;35.60;100996.09;5033239;28;20041;-78
2023/04/25 09:38:56;;;;;;;3.88;1.50;;;;;;;11.23;35.51;100998.22;5032386;28;20053;-79
2023/04/25 09:41:38;;;;;;;3.45;1.42;;;;;;;11.22;35.72;100989.19;5045095;28;20156;-78
2023/04/25 09:44:07;;;;;;;3.28;1.23;;;;;;;11.23;35.53;100988.16;5041137;28;20088;-78
2023/04/25 09:46:37;;;;;;;4.50;1.80;;;;;;;11.23;35.87;100992.75;5042895;28;20060;-78
2023/04/25 09:49:21;;;;;;;4.85;1.58;;;;;;;11.24;36.11;100989.00;5038537;28;20104;-79
2023/04/25 09:52:17;;;;;;;6.57;1.45;;;;;;;11.27;35.91;101000.59;5025078;28;20057;-79
2023/04/25 09:54:54;;;;;;;3.35;1.25;;;;;;;11.29;35.94;100993.09;5030393;28;20452;-79
2023/04/25 09:57:29;;;;;;;4.05;1.38;;;;;;;11.31;35.56;100992.94;5038823;28;20061;-80
2023/04/25 10:00:04;;;;;;;4.55;1.70;;;;;;;11.37;34.94;101014.34;5042750;28;20136;-78
2023/04/25 10:02:43;;;;;;;2.25;1.15;;;;;;;11.35;34.67;101017.22;5032993;28;20041;-79
2023/04/25 10:05:20;;;;;;;5.50;1.38;;;;;;;11.37;35.00;101017.09;5049554;28;20109;-79
2023/04/25 10:07:48;;;;;;;2.95;1.20;;;;;;;11.36;34.46;101023.56;5053743;28;20041;-78
2023/04/25 10:10:18;;;;;;;3.08;1.20;;;;;;;11.40;34.54;101022.28;5045583;28;20045;-79
2023/04/25 10:12:46;;;;;;;2.90;1.42;;;;;;;11.40;34.99;101021.41;5040818;28;20076;-78
2023/04/25 10:15:16;;;;;;;3.53;1.40;;;;;;;11.41;34.30;101034.97;5033782;28;20562;-80
2023/04/25 10:17:44;;;;;;;4.20;1.30;;;;;;;11.42;34.38;101033.09;5042551;28;20342;-79
2023/04/25 10:20:13;;;;;;;2.70;1.13;;;;;;;11.41;34.31;101034.09;5029392;28;20061;-80
2023/04/25 10:22:45;;;;;;;3.65;1.15;;;;;;;11.42;34.01;101036.72;5047441;28;20069;-79
2023/04/25 10:25:14;;;;;;;3.47;1.30;;;;;;;11.40;34.63;101046.06;5046834;28;20057;-79
2023/04/25 10:27:42;;;;;;;2.70;1.33;;;;;;;11.40;34.48;101040.59;5030928;28;20041;-79
2023/04/25 10:30:15;;;;;;;4.85;1.40;;;;;;;11.42;34.23;101041.31;5048699;28;20042;-79
2023/04/25 10:32:46;;;;;;;5.00;1.30;;;;;;;11.41;33.65;101050.56;5031971;28;20439;-79
2023/04/25 10:35:16;;;;;;;3.67;1.70;;;;;;;11.39;33.81;101058.91;5033920;28;20101;-78
2023/04/25 10:38:01;;;;;;;3.55;1.40;;;;;;;11.40;33.02;101051.56;5041186;28;20072;-80
2023/04/25 10:40:29;;;;;;;2.67;1.33;;;;;;;11.36;33.76;101056.44;5047976;28;20148;-79
2023/04/25 10:43:34;;;;;;;3.75;1.20;;;;;;;11.33;33.03;101052.09;5053200;28;20809;-80
2023/04/25 10:46:05;;;;;;;5.03;1.40;;;;;;;11.30;33.66;101060.59;5034023;28;20063;-80
2023/04/25 10:48:35;;;;;;;4.00;1.10;;;;;;;11.30;33.03;101057.00;5033667;28;20064;-80
2023/04/25 10:51:10;;;;;;;3.25;1.20;;;;;;;11.30;32.59;101054.25;5022808;28;20044;-80
2023/04/25 10:53:38;;;;;;;2.83;1.15;;;;;;;11.24;33.47;101050.16;5039851;28;20447;-79
2023/04/25 10:56:11;;;;;;;4.40;1.50;;;;;;;11.26;32.30;101050.91;5020680;28;20064;-80
2023/04/25 10:58:44;;;;;;;3.10;1.20;;;;;;;11.24;32.70;101052.91;5048304;28;20080;-80
2023/04/25 11:01:13;;;;;;;2.10;1.05;;;;;;;11.21;33.04;101044.09;5032176;28;20045;-79
2023/04/25 11:03:44;;;;;;;5.18;1.17;;;;;;;11.23;32.99;101053.91;5038401;28;20057;-79
2023/04/25 11:06:23;;;;;;;3.22;1.25;;;;;;;11.24;32.03;101044.69;5031914;28;20077;-79
2023/04/25 11:08:52;;;;;;;2.42;1.10;;;;;;;11.23;32.99;101051.16;5043087;28;20050;-79
2023/04/25 11:11:20;;;;;;;2.33;1.17;;;;;;;11.27;33.42;101044.44;5031991;28;20500;-81
2023/04/25 11:13:50;;;;;;;3.72;1.10;;;;;;;11.31;33.42;101051.34;5047905;28;20057;-80
2023/04/25 11:16:18;;;;;;;3.30;1.20;;;;;;;11.36;32.98;101049.09;5025689;28;20077;-80
2023/04/25 11:18:58;;;;;;;2.92;1.10;;;;;;;11.43;32.27;101043.94;5026843;28;20088;-79
2023/04/25 11:21:27;;;;;;;3.67;1.20;;;;;;;11.47;33.46;101045.38;5048596;28;20133;-79
2023/04/25 11:23:57;;;;;;;2.63;0.90;;;;;;;11.54;33.48;101045.75;5040323;28;20349;-80
2023/04/25 11:26:25;;;;;;;2.78;1.10;;;;;;;11.62;33.34;101048.69;5048241;28;20064;-80
2023/04/25 11:28:58;;;;;;;2.95;1.13;;;;;;;11.70;32.71;101046.16;5049412;28;20060;-80
2023/04/25 11:31:26;;;;;;;;;;;;;;;11.48;33.37;101040.78;5040881;28;20050;-78
2023/04/25 11:33:58;;;;;;;4.25;1.10;;;;;;;11.79;32.42;101044.44;5040691;28;19921;-80
2023/04/25 11:36:26;;;;;;;3.90;1.35;;;;;;;11.89;33.18;101042.59;5037312;28;20084;-80
2023/04/25 11:38:55;;;;;;;3.35;1.27;;;;;;;11.94;32.73;101041.19;5048565;28;20124;-80
2023/04/25 11:41:23;;;;;;;2.72;1.10;;;;;;;11.98;32.86;101048.13;5030887;28;20079;-80
2023/04/25 11:43:51;;;;;;;2.90;1.00;;;;;;;12.03;32.28;101044.97;5058445;28;20037;-80
2023/04/25 11:46:20;;;;;;;3.10;1.20;;;;;;;12.07;32.42;101052.78;5056072;28;20294;-80
2023/04/25 11:48:50;;;;;;;3.97;1.50;;;;;;;12.12;32.58;101041.41;5024020;28;20599;-80
2023/04/25 11:51:20;;;;;;;2.97;1.60;;;;;;;12.16;32.07;101045.56;5022732;28;20053;-80
2023/04/25 11:53:48;;;;;;;3.17;1.42;;;;;;;12.17;32.23;101050.06;5027678;28;20041;-80
2023/04/25 11:56:16;;;;;;;4.32;1.30;;;;;;;12.22;32.37;101050.50;5027766;28;20049;-81
2023/04/25 11:58:57;;;;;;;3.50;1.20;;;;;;;12.28;32.13;101055.44;5042727;28;20048;-80
2023/04/25 12:01:30;;;;;;;3.35;1.25;;;;;;;12.32;32.24;101056.00;5022648;28;20128;-80
2023/04/25 12:04:12;;;;;;;2.85;1.30;;;;;;;12.38;31.96;101049.94;5031339;28;20067;-79